AirNav   Air Wisconsin pilot careers
 
 289 users online  

68NM Flying H Ranch Airport
Hope, New Mexico, USA

GOING TO HOPE?


FAA INFORMATION EFFECTIVE 12 SEPTEMBER 2019

Location

FAA Identifier: 68NM
Lat/Long: 33-01-43.3520N 105-07-36.9270W
33-01.722533N 105-07.615450W
33.0287089,-105.1269242
(estimated)
Elevation: 5162 ft. / 1573.4 m (surveyed)
Variation: 10E (1985)
From city: 23 miles NW of HOPE, NM
Time zone: UTC -6 (UTC -7 during Standard Time)
Zip code: 88201

Airport Operations

Airport use: Private use. Permission required prior to landing
Activation date: 11/1951
Control tower: no
ARTCC: ALBUQUERQUE CENTER
FSS: ALBUQUERQUE FLIGHT SERVICE STATION
Attendance: UNATNDD
Wind indicator: yes
Segmented circle: no

Nearby radio navigation aids

VOR radial/distance  VOR name  Freq  Var
PIOr005/31.3PINON VOR/DME110.4012E
CMEr222/31.4CHISUM VORTAC116.1012E

 
NDB name  Hdg/Dist  Freq  Var  ID
CAPITAN143/31.027810ECEP -.-. . .--.
ARTESIA278/35.241409EATS .- - ...

Airport Services

Airframe service: NONE
Powerplant service: NONE

Runway Information

Runway 13/31

Dimensions: 2700 x 60 ft. / 823 x 18 m
Surface: dirt
RUNWAY 13  RUNWAY 31
Traffic pattern: leftleft

Airport Ownership and Management from official FAA records

Ownership: Privately-owned
Owner: FELIX CANYON RANCH, LLC
1771 FELIX CANYON ROAD
FLYING H, NM 88339
Phone 575-687-3992
Manager: JENS AND SUSAN KLINGSHIRN
1771 FELIX CANYON ROAD
FLYING H, NM 88339
Phone 575-687-3992

Additional Remarks

PRIVATE USE, PRIOR PERMISSION REQUIRED, CALL 575-687-3992.
PARKING SPACE FOR MULTIPLE ACFT..
FOR CD CTC ALBUQUERQUE ARTCC AT 505-856-4861.

Instrument Procedures

There are no published instrument procedures at 68NM.

Some nearby airports with instrument procedures:

KSRR - Sierra Blanca Regional Airport (33 nm NW)
KROW - Roswell International Air Center Airport (34 nm NE)
KATS - Artesia Municipal Airport (35 nm E)
KALM - Alamogordo-White Sands Regional Airport (45 nm W)
KHMN - Holloman Air Force Base (51 nm W)
 
Loc | Ops | Rwys | IFR | FBO | Links
Com | Nav | Svcs | Stats | Notes

AirBoss

 
Area around 68NM (Flying H Ranch Airport)
 
Road maps at: MapQuest Bing Google
 
Aerial photo
No photo
 
Sectional chart

 
Airport distance calculator
Flying to Flying H Ranch Airport? Find the distance to fly.

From to 68NM

Sunrise and sunset
Times for 24-Sep-2019
 Local
(UTC-6)
 Zulu
(UTC)
Morning civil twilight06:2612:26
Sunrise06:5112:51
Sunset18:5400:54
Evening civil twilight19:1901:19

Current date and time
Zulu (UTC)  24-Sep-2019 09:02:44
Local (UTC-6)  24-Sep-2019 03:02:44
 
METAR
KSRR 
33nm NW 
240835Z AUTO 29010G15KT 10SM FEW042 SCT065 BKN100 16/07 A3025 RMK AO2
KATS 
35nm E 
240835Z AUTO 18008KT 10SM CLR 22/20 A3001 RMK AO2
KROW 
35nm NE 
240851Z AUTO 32011KT 10SM CLR 22/09 A3003 RMK AO2 WSHFT 0754 SLP096 T02170089 50007
KALM 
44nm W 
240815Z AUTO 04011KT 10SM FEW023 SCT045 OVC095 17/13 A3011 RMK AO2 P0001
KHMN 
49nm W 
240858Z AUTO 04011KT 10SM FEW060 SCT075 18/13 A3008 RMK AO2 SLP117 P0000 60005 T01760133 58002 $
TAF
KROW 
35nm NE 
240521Z 2406/2506 15006KT P6SM SKC FM241100 35006KT P6SM SCT200 FM242100 16005KT P6SM FEW090 FM250500 22005KT P6SM SCT090
NOTAMs
Click for the latest NOTAMs
NOTAMs are issued by the DoD/FAA and will open in a separate window not controlled by AirNav.

 

 
 

Would you like to see your business listed on this page?

 If your business provides an interesting product or service to pilots, flight crews, aircraft, or users of the Flying H Ranch Airport, you should consider listing it here.  To start the listing process, click on the button below
 
Add a business
 

Other Pages about Flying H Ranch Airport

Update a link
 
Copyright © AirNav, LLC. All rights reserved. Privacy Policy  Contact